This is the latest recevied weather packets stored in our database for station/object EA6MW-10. If no packets are shown the sender has not sent any weather packets the latest 10 day(s).
| Time | Temp. | Humidity | Pressure | Rain* | Wind** | Luminosity | Snow |
|---|---|---|---|---|---|---|---|
| 1777904637 | 23.89° C | 65% | 1012.6 hPa | - | - | - | - |
| 1777903737 | 21.11° C | 75% | 1012.9 hPa | - | - | - | - |
| 1777902837 | 18.33° C | 83% | 1013.3 hPa | - | - | - | - |
| 1777901936 | 21.11° C | 69% | 1013.4 hPa | - | - | - | - |
| 1777901036 | 22.78° C | 65% | 1013.6 hPa | - | - | - | - |
| 1777900136 | 20° C | 77% | 1013.6 hPa | - | - | - | - |
| 1777899236 | 21.11° C | 73% | 1013.5 hPa | - | - | - | - |
| 1777898336 | 19.44° C | 78% | 1013.7 hPa | - | - | - | - |
| 1777897435 | 23.89° C | 63% | 1013.6 hPa | - | - | - | - |
| 1777896534 | 22.22° C | 67% | 1013.6 hPa | - | - | - | - |
| 1777895634 | 23.33° C | 62% | 1013.8 hPa | - | - | - | - |
| 1777894734 | 24.44° C | 62% | 1013.8 hPa | - | - | - | - |
| 1777893834 | 20.56° C | 73% | 1013.8 hPa | - | - | - | - |
| 1777892933 | 21.11° C | 70% | 1013.8 hPa | - | - | - | - |
| 1777892033 | 23.33° C | 64% | 1013.9 hPa | - | - | - | - |
| 1777891133 | 22.78° C | 64% | 1013.9 hPa | - | - | - | - |
| 1777890232 | 22.22° C | 65% | 1013.9 hPa | - | - | - | - |
| 1777889332 | 23.89° C | 60% | 1014 hPa | - | - | - | - |
| 1777888432 | 25.56° C | 58% | 1014 hPa | - | - | - | - |
| 1777828100 | 21.11° C | 68% | 1013.5 hPa | - | - | - | - |
| 1777827200 | 21.67° C | 66% | 1013.6 hPa | - | - | - | - |
| 1777826300 | 22.78° C | 64% | 1013.8 hPa | - | - | - | - |
| 1777825400 | 23.33° C | 61% | 1013.7 hPa | - | - | - | - |
| 1777824499 | 22.22° C | 63% | 1013.9 hPa | - | - | - | - |
| 1777823599 | 23.89° C | 61% | 1014.1 hPa | - | - | - | - |
* Rain since midnight (hover to see other rain measurements)
** Current wind speed in m/s (hover to see current wind gust speed)